Tropical Cyclones
[Index]
Main Index Home Page Stock Weather Photos Extreme Storms Discussion Storm News and Storm Chasing Reports Tropical Cyclones / Hurricanes / Typhoons Weather Data and Links Wild Fires / Bushfires Weather Observation Techniques Weather Picture Catalogue Tornado Pictures and Reports Stock Video Footage and DVDs for sale
Season 2010-2011 Tropical Cyclone WILMA Track Map
Season 2010-2011 Summaries (Operational Data): [AU] [SIO] [SPAC] [SH]
<<- Previous TC | 2010-2011 Season | Next TC ->>

click for intensity scale information  Lat/long Grid: Show Hide

 Date Labels: Show Hide

Operational Tropical Cyclone Data : JTWC Advisories

Name: WILMA
Number: 1108

19 Jan 2011 06:00 UTC to 30 Jan 2011 12:00 UTC

    date/time    lat    long     hPa   cat  kts
2011-01-19 06   13.2   178.6W   1004                     
2011-01-19 21   12.0   178.0W   1004                     
2011-01-20 06   12.7   178.2W   1002                     
2011-01-20 21   13.7   177.1W   1003                     
2011-01-21 06   14.3   176.8W   1003                     
2011-01-21 09   14.7   176.9W   1001                     
2011-01-21 18   14.0   174.5W   1001                     
2011-01-21 21   14.0   174.4W   1001                     
2011-01-22 00   14.1   174.1W    998         25          
2011-01-22 06   14.2   173.7W    998         25          
2011-01-22 12   13.3   172.7W    995    1    35          
2011-01-22 18   11.8   171.0W    995    1    35          
2011-01-23 00   11.6   170.3W    995    1    40          
2011-01-23 06   11.8   170.1W    995    1    40          
2011-01-23 12   12.8   171.0W    994    1    40          
2011-01-23 18   14.0   171.0W    990    1    40          
2011-01-24 00   15.0   171.2W    990    1    40          
2011-01-24 06   15.9   171.1W    985    2    50          
2011-01-24 12   16.9   171.5W    985    2    50          
2011-01-24 18   18.8   173.0W    970    3    65          
2011-01-25 00   20.6   175.3W    970    3    65          
2011-01-25 06   21.5   177.2W    965    3    70          
2011-01-25 12   22.4   179.9W    965    3    80          
2011-01-25 18   22.6   178.5     960    3    85          
2011-01-26 00   22.9   177.2     950    4    90          
2011-01-26 06   23.4   176.0     940    4    95          
2011-01-26 12   23.6   175.1     940    4   100          
2011-01-26 18   24.4   174.3     930    4   100          
2011-01-27 00   24.9   173.7     930    4   100          
2011-01-27 06   26.1   172.9     950    3    80          
2011-01-27 12   27.2   172.2     955    3    80          
2011-01-27 18   27.9   171.7     975    2    60          
2011-01-28 00   30.5   172.2     980    2    55          
2011-01-28 06   32.5   172.7     978    2    55          
2011-01-28 12   34.4   174.7     981    2    55          
2011-01-28 18   36.0   177.0     978    2    50          
2011-01-29 00   39.0   179.0W    989    2    50          
2011-01-29 06   44.0   176.0W    972    2    50          
2011-01-29 12   46.0   173.0W    968    2    50          
2011-01-29 18   48.0   170.0W    961    2    50          
2011-01-30 00   50.0   167.0W    961    2    50          
2011-01-30 06   53.0   162.0W    960    2    50          
2011-01-30 12   55.0   158.0W    959    2    50          
Winds are 10-min average.

Tropical cyclone tracks developed by Michael Bath using operational warnings and advisories and Google Maps.


[Australian Severe Weather index] [Copyright Notice] [Email Contacts] [Search This Site] [Privacy Policy]
Document: tropical_cyclone_wilma.htm Updated: 2 May 2017